Time;durP1;ratioP1;P1;durP2;ratioP2;P2;SDS_P1;SDS_P2;PMS_P1;PMS_P2;Temp;Humidity;BMP_temperature;BMP_pressure;BME280_temperature;BME280_humidity;BME280_pressure;Samples;Min_cycle;Max_cycle;Signal;HPM_P1;HPM_P2
2022/12/05 00:01:53;;;;;;;13.53;9.03;;;;;;;3.98;93.00;95278.94;4933652;29;20209;-81
2022/12/05 00:04:19;;;;;;;12.83;9.20;;;;;;;4.03;92.52;95274.22;4933049;29;20208;-81
2022/12/05 00:06:47;;;;;;;13.60;9.47;;;;;;;4.04;92.48;95278.34;4932940;29;20205;-79
2022/12/05 00:09:14;;;;;;;13.63;9.80;;;;;;;4.00;92.86;95299.16;4932256;29;20837;-81
2022/12/05 00:11:43;;;;;;;12.80;9.43;;;;;;;4.01;92.98;95299.03;4932607;29;20204;-81
2022/12/05 00:14:10;;;;;;;13.47;10.23;;;;;;;4.04;92.63;95295.38;4935638;29;20205;-81
2022/12/05 00:16:38;;;;;;;12.00;8.97;;;;;;;4.04;92.63;95288.53;4936359;29;20209;-81
2022/12/05 00:19:06;;;;;;;13.70;9.83;;;;;;;4.04;92.95;95293.63;4936540;29;20601;-81
2022/12/05 00:21:35;;;;;;;11.53;8.67;;;;;;;3.94;93.08;95305.63;4936562;29;20201;-81
2022/12/05 00:24:05;;;;;;;11.40;9.10;;;;;;;3.90;93.47;95301.75;4935995;29;20218;-80
2022/12/05 00:26:32;;;;;;;12.23;9.37;;;;;;;3.90;93.70;95316.22;4936073;29;20202;-80
2022/12/05 00:28:59;;;;;;;13.73;9.40;;;;;;;3.88;94.32;95315.56;4936123;29;20226;-80
2022/12/05 00:31:27;;;;;;;12.83;9.20;;;;;;;3.92;94.29;95311.78;4935946;29;20578;-80
2022/12/05 00:33:55;;;;;;;14.03;10.13;;;;;;;3.94;94.14;95315.00;4935890;29;20203;-81
2022/12/05 00:36:24;;;;;;;13.23;9.57;;;;;;;3.96;93.76;95315.66;4936213;29;20577;-80
2022/12/05 00:38:51;;;;;;;14.27;10.13;;;;;;;4.01;93.97;95316.06;4935388;29;20697;-81
2022/12/05 00:41:22;;;;;;;12.27;9.07;;;;;;;4.03;93.57;95314.97;4936121;29;20213;-81
2022/12/05 00:43:49;;;;;;;13.57;9.80;;;;;;;3.99;93.83;95313.66;4936267;29;20205;-79
2022/12/05 00:46:19;;;;;;;13.10;9.60;;;;;;;3.95;94.38;95317.41;4936446;29;20237;-80
2022/12/05 00:48:46;;;;;;;13.57;9.50;;;;;;;3.89;94.54;95322.25;4935411;29;20225;-81
2022/12/05 00:51:16;;;;;;;13.93;9.70;;;;;;;3.89;94.77;95329.91;4935665;29;20198;-81
2022/12/05 00:53:43;;;;;;;14.40;9.83;;;;;;;3.81;95.42;95326.34;4934933;29;20216;-80
2022/12/05 00:56:11;;;;;;;13.53;9.90;;;;;;;3.89;95.24;95317.97;4935887;29;20205;-80
2022/12/05 00:58:39;;;;;;;15.73;10.43;;;;;;;3.92;95.27;95322.78;4935445;29;20228;-80
2022/12/05 01:01:07;;;;;;;13.00;9.63;;;;;;;3.90;95.43;95319.56;4935182;29;20193;-81
2022/12/05 01:03:33;;;;;;;15.20;9.97;;;;;;;3.84;95.76;95322.72;4936287;29;20268;-81
2022/12/05 01:06:00;;;;;;;13.13;9.73;;;;;;;3.87;95.49;95329.25;4935368;29;20244;-81
2022/12/05 01:08:27;;;;;;;14.67;9.63;;;;;;;3.91;95.06;95336.47;4935824;29;20221;-81
2022/12/05 01:10:55;;;;;;;12.83;9.23;;;;;;;3.97;95.08;95341.00;4935601;29;20213;-82
2022/12/05 01:13:22;;;;;;;13.17;9.57;;;;;;;4.01;94.14;95344.06;4935667;29;20200;-81
2022/12/05 01:15:50;;;;;;;14.97;9.93;;;;;;;4.04;93.85;95354.75;4935443;29;20209;-79
2022/12/05 01:18:17;;;;;;;13.07;9.53;;;;;;;4.09;93.84;95365.31;4934382;29;20222;-80
2022/12/05 01:20:43;;;;;;;15.33;10.60;;;;;;;4.05;94.10;95363.19;4935426;29;20205;-82
2022/12/05 01:23:10;;;;;;;15.53;9.67;;;;;;;4.00;94.37;95381.47;4934605;29;20206;-81
2022/12/05 01:25:39;;;;;;;16.10;10.90;;;;;;;3.96;95.05;95386.97;4935112;29;20221;-80
2022/12/05 01:28:06;;;;;;;15.23;10.53;;;;;;;3.98;95.04;95390.19;4936172;29;20220;-81
2022/12/05 01:30:32;;;;;;;13.43;9.47;;;;;;;4.02;94.95;95388.97;4935862;29;20225;-81
2022/12/05 01:33:00;;;;;;;15.83;10.53;;;;;;;4.01;94.81;95390.72;4935219;29;20293;-81
2022/12/05 01:35:27;;;;;;;14.73;10.30;;;;;;;4.01;95.29;95367.78;4935412;29;20549;-81
2022/12/05 01:37:53;;;;;;;13.67;10.07;;;;;;;4.05;95.14;95358.91;4935197;29;20309;-81
2022/12/05 01:40:20;;;;;;;14.07;10.07;;;;;;;4.03;95.18;95362.56;4935228;29;20283;-81
2022/12/05 01:42:46;;;;;;;14.43;10.47;;;;;;;4.05;94.58;95369.09;4935322;29;20293;-80
2022/12/05 01:45:16;;;;;;;14.23;10.57;;;;;;;4.06;94.92;95360.50;4934629;29;20320;-81
2022/12/05 01:47:43;;;;;;;14.07;10.03;;;;;;;4.01;94.80;95375.44;4934851;29;20304;-81
2022/12/05 01:50:13;;;;;;;14.57;10.33;;;;;;;3.98;94.69;95388.44;4934912;29;20228;-81
2022/12/05 01:52:40;;;;;;;12.77;10.27;;;;;;;3.98;94.80;95392.75;4934226;29;20204;-81
2022/12/05 01:55:10;;;;;;;15.03;10.57;;;;;;;3.93;95.14;95405.88;4934695;29;20209;-81
2022/12/05 01:57:37;;;;;;;13.20;9.60;;;;;;;3.84;95.69;95396.56;4933705;29;20217;-81
2022/12/05 02:00:09;;;;;;;14.40;10.17;;;;;;;3.83;95.89;95402.59;4933850;29;20212;-81
2022/12/05 02:02:36;;;;;;;14.07;10.03;;;;;;;3.90;95.59;95413.00;4933739;29;20217;-81
2022/12/05 02:05:06;;;;;;;13.93;9.90;;;;;;;3.89;95.59;95409.66;4934150;29;20221;-81
2022/12/05 02:07:37;;;;;;;13.57;9.80;;;;;;;3.93;95.30;95418.63;4933549;29;20236;-79
2022/12/05 02:10:06;;;;;;;13.93;9.87;;;;;;;3.94;95.35;95434.72;4933833;29;20197;-81
2022/12/05 02:12:33;;;;;;;14.20;9.47;;;;;;;3.94;95.17;95452.53;4933389;29;20209;-81
2022/12/05 02:15:19;;;;;;;11.73;9.03;;;;;;;3.90;95.44;95453.75;4933585;29;20206;-80
2022/12/05 02:17:56;;;;;;;14.00;10.27;;;;;;;3.79;95.56;95445.34;4933556;29;20238;-79
2022/12/05 02:20:37;;;;;;;14.57;10.63;;;;;;;3.84;95.56;95439.84;4933816;29;20751;-81
2022/12/05 02:23:36;;;;;;;13.70;9.30;;;;;;;3.77;95.68;95452.31;4927056;29;20194;-80
2022/12/05 02:26:23;;;;;;;12.10;9.30;;;;;;;3.75;95.59;95445.75;4908686;29;20229;-80
2022/12/05 02:29:15;;;;;;;12.00;9.10;;;;;;;3.80;95.30;95463.97;4933812;29;20213;-80
2022/12/05 02:31:51;;;;;;;12.50;9.33;;;;;;;3.71;95.89;95457.94;4931999;29;20205;-80
2022/12/05 02:34:23;;;;;;;12.50;9.37;;;;;;;3.66;96.32;95461.84;4933875;29;20198;-81
2022/12/05 02:36:57;;;;;;;12.47;9.63;;;;;;;3.57;96.96;95470.31;4932470;29;20204;-81
2022/12/05 02:39:29;;;;;;;12.23;9.50;;;;;;;3.61;96.69;95469.09;4933552;29;20209;-80
2022/12/05 02:42:03;;;;;;;13.63;9.83;;;;;;;3.64;96.92;95458.66;4933475;29;20560;-81
2022/12/05 02:44:34;;;;;;;14.70;10.30;;;;;;;3.67;96.69;95458.34;4933417;29;20785;-80
2022/12/05 02:47:04;;;;;;;13.90;9.17;;;;;;;3.70;96.46;95463.97;4925377;29;20224;-80
2022/12/05 02:49:35;;;;;;;12.67;9.20;;;;;;;3.63;96.15;95479.97;4933046;29;20198;-81
2022/12/05 02:52:12;;;;;;;13.07;9.27;;;;;;;3.52;96.76;95469.91;4932157;29;20198;-79
2022/12/05 02:54:42;;;;;;;13.03;9.33;;;;;;;3.52;97.17;95469.91;4932648;29;20213;-81
2022/12/05 02:57:10;;;;;;;13.43;9.67;;;;;;;3.41;98.06;95481.03;4933193;29;20224;-81
2022/12/05 02:59:37;;;;;;;15.00;10.00;;;;;;;3.41;98.00;95479.31;4932696;29;20208;-80
2022/12/05 03:02:05;;;;;;;13.63;10.00;;;;;;;3.42;98.19;95483.47;4932352;29;20206;-80
2022/12/05 03:04:31;;;;;;;13.93;9.40;;;;;;;3.37;98.85;95488.13;4932620;29;20208;-80
2022/12/05 03:07:02;;;;;;;14.60;9.57;;;;;;;3.37;98.96;95485.59;4932888;29;20232;-78
2022/12/05 03:09:35;;;;;;;13.27;9.43;;;;;;;3.38;99.12;95479.56;4932878;29;20190;-81
2022/12/05 03:12:09;;;;;;;15.37;9.90;;;;;;;3.39;99.55;95483.72;4932724;29;20213;-81
2022/12/05 03:14:41;;;;;;;14.87;9.70;;;;;;;3.39;100.00;95504.09;4932960;29;20201;-79
2022/12/05 03:17:17;;;;;;;15.27;9.93;;;;;;;3.42;99.36;95505.56;4932786;29;20224;-80
2022/12/05 03:19:52;;;;;;;17.10;11.10;;;;;;;3.53;99.06;95510.50;4932792;29;20207;-80
2022/12/05 03:22:24;;;;;;;14.70;9.90;;;;;;;3.62;98.57;95507.16;4932966;29;20693;-80
2022/12/05 03:24:51;;;;;;;14.27;9.80;;;;;;;3.63;98.49;95505.41;4932764;29;20205;-81
2022/12/05 03:27:25;;;;;;;15.03;9.50;;;;;;;3.55;98.51;95512.91;4932595;29;20225;-79
2022/12/05 03:29:56;;;;;;;13.17;9.40;;;;;;;3.55;98.82;95520.53;4925120;29;20204;-80
2022/12/05 03:32:32;;;;;;;12.60;9.57;;;;;;;3.52;99.01;95519.06;4932706;29;20193;-81
2022/12/05 03:35:06;;;;;;;12.37;8.73;;;;;;;3.42;100.00;95520.81;4932896;29;20205;-80
2022/12/05 03:37:41;;;;;;;13.07;9.57;;;;;;;3.35;100.00;95528.19;4932593;29;20971;-80
2022/12/05 03:40:13;;;;;;;11.93;9.07;;;;;;;3.35;99.99;95529.91;4932794;29;20197;-80
2022/12/05 03:42:49;;;;;;;11.27;8.07;;;;;;;3.42;99.68;95531.81;4932629;29;20198;-79
2022/12/05 03:45:20;;;;;;;12.83;8.93;;;;;;;3.40;99.43;95527.78;4925666;29;20189;-82
2022/12/05 03:47:52;;;;;;;12.90;9.13;;;;;;;3.48;99.06;95538.88;4932035;29;20276;-81
2022/12/05 03:50:22;;;;;;;10.83;8.57;;;;;;;3.46;99.19;95540.75;4932464;29;20202;-82
2022/12/05 03:52:54;;;;;;;10.60;7.97;;;;;;;3.57;98.40;95550.03;4931674;29;20217;-82
2022/12/05 03:55:23;;;;;;;13.73;9.17;;;;;;;3.52;98.85;95538.63;4932432;29;20205;-82
2022/12/05 03:57:54;;;;;;;12.90;9.40;;;;;;;3.41;99.72;95542.94;4931845;29;20229;-82
2022/12/05 04:00:23;;;;;;;12.47;9.13;;;;;;;3.37;100.00;95544.13;4932144;29;20196;-82
2022/12/05 04:02:55;;;;;;;11.83;9.50;;;;;;;3.44;100.00;95532.47;4932680;29;20264;-81
2022/12/05 04:05:26;;;;;;;14.17;9.47;;;;;;;3.41;100.00;95542.13;4932383;29;20628;-82
2022/12/05 04:07:58;;;;;;;12.07;9.80;;;;;;;3.45;100.00;95540.91;4931579;29;20240;-82
2022/12/05 04:10:29;;;;;;;11.90;9.07;;;;;;;3.47;99.74;95549.19;4932118;29;20804;-82
2022/12/05 04:13:16;;;;;;;12.17;9.13;;;;;;;3.50;99.71;95548.94;4932520;29;20190;-82
2022/12/05 04:18:37;;;;;;;13.10;8.47;;;;;;;3.55;98.75;95554.44;4926878;29;20393;-82
2022/12/05 04:25:31;;;;;;;12.60;9.00;;;;;;;3.68;97.90;95565.16;4931828;29;20212;-80
2022/12/05 04:26:41;;;;;;;11.27;8.80;;;;;;;3.71;97.85;95553.88;4931726;29;20225;-81
2022/12/05 04:29:14;;;;;;;11.30;9.27;;;;;;;3.75;97.42;95561.13;4931429;29;20735;-79
2022/12/05 04:31:43;;;;;;;12.00;8.53;;;;;;;3.68;97.76;95564.34;4931900;29;20829;-81
2022/12/05 04:34:14;;;;;;;10.73;8.50;;;;;;;3.72;98.12;95565.69;4932104;29;20198;-81
2022/12/05 04:36:44;;;;;;;12.80;8.83;;;;;;;3.70;98.22;95565.81;4932025;29;20557;-80
2022/12/05 04:39:16;;;;;;;13.97;9.70;;;;;;;3.79;97.60;95565.03;4932268;29;20240;-82
2022/12/05 04:41:46;;;;;;;11.50;8.80;;;;;;;3.77;97.53;95566.91;4932517;29;20193;-82
2022/12/05 04:44:17;;;;;;;13.47;9.00;;;;;;;3.79;97.65;95567.56;4932466;29;20190;-82
2022/12/05 04:46:49;;;;;;;13.77;8.97;;;;;;;3.88;97.38;95568.47;4923707;29;20356;-81
2022/12/05 04:49:21;;;;;;;13.70;9.30;;;;;;;3.92;97.31;95562.19;4932087;29;20201;-81
2022/12/05 04:52:00;;;;;;;11.93;8.60;;;;;;;3.96;97.21;95555.88;4932288;29;20212;-81
2022/12/05 04:54:30;;;;;;;13.50;9.07;;;;;;;3.94;96.63;95550.13;4931639;29;20704;-82
2022/12/05 04:57:12;;;;;;;13.60;9.23;;;;;;;3.96;97.26;95549.97;4931862;29;20202;-81
2022/12/05 04:59:38;;;;;;;13.10;9.17;;;;;;;4.01;97.07;95550.38;4932944;29;20585;-82
2022/12/05 05:02:07;;;;;;;12.87;9.67;;;;;;;4.06;96.49;95553.31;4935524;29;20202;-82
2022/12/05 05:04:38;;;;;;;15.40;9.90;;;;;;;3.96;97.52;95535.50;4934812;29;20292;-82
2022/12/05 05:07:07;;;;;;;13.30;9.67;;;;;;;3.96;97.61;95525.31;4934352;29;20862;-80
2022/12/05 05:09:34;;;;;;;13.63;10.00;;;;;;;4.05;97.46;95539.75;4934549;29;20586;-81
2022/12/05 05:12:00;;;;;;;13.17;9.63;;;;;;;4.08;97.27;95534.41;4934883;29;20613;-82
2022/12/05 05:14:27;;;;;;;13.33;9.37;;;;;;;4.07;96.97;95530.25;4934719;29;20198;-82
2022/12/05 05:16:53;;;;;;;14.10;9.83;;;;;;;4.07;97.24;95537.06;4936051;29;20204;-80
2022/12/05 05:19:20;;;;;;;14.10;9.60;;;;;;;4.11;96.98;95539.22;4925567;29;20669;-81
2022/12/05 05:21:48;;;;;;;15.47;9.90;;;;;;;4.13;97.19;95544.19;4926977;29;20213;-82
2022/12/05 05:24:15;;;;;;;15.13;10.27;;;;;;;4.18;96.61;95554.78;4924735;29;20214;-82
2022/12/05 05:26:43;;;;;;;14.13;9.63;;;;;;;4.22;96.56;95552.75;4930702;29;20885;-80
2022/12/05 05:29:10;;;;;;;15.00;10.30;;;;;;;4.24;96.33;95556.75;4931585;29;20221;-80
2022/12/05 05:31:38;;;;;;;15.57;10.77;;;;;;;4.27;95.74;95548.81;4935375;29;20198;-80
2022/12/05 05:34:05;;;;;;;14.20;9.67;;;;;;;4.27;96.15;95553.94;4934691;29;20206;-82
2022/12/05 05:36:32;;;;;;;13.10;10.10;;;;;;;4.26;96.13;95557.41;4934569;29;20264;-81
2022/12/05 05:39:02;;;;;;;14.03;9.53;;;;;;;4.31;96.33;95557.00;4934785;29;20221;-81
2022/12/05 05:41:30;;;;;;;14.73;10.70;;;;;;;4.35;95.53;95561.69;4935617;29;20201;-81
2022/12/05 05:43:57;;;;;;;15.23;10.33;;;;;;;4.29;96.24;95563.97;4934457;29;20210;-81
2022/12/05 05:46:26;;;;;;;14.60;10.37;;;;;;;4.31;96.55;95567.19;4935267;29;20221;-80
2022/12/05 05:48:53;;;;;;;13.20;9.40;;;;;;;4.32;96.45;95572.16;4930911;29;20236;-79
2022/12/05 05:51:22;;;;;;;15.20;10.10;;;;;;;4.35;96.23;95566.78;4930986;29;20677;-81
2022/12/05 05:53:48;;;;;;;16.60;10.30;;;;;;;4.40;96.25;95564.63;4933155;29;20589;-81
2022/12/05 05:56:19;;;;;;;14.20;10.23;;;;;;;4.46;95.83;95555.59;4934574;29;20304;-80
2022/12/05 05:58:46;;;;;;;15.37;10.27;;;;;;;4.47;95.33;95562.31;4934374;29;20236;-81
2022/12/05 06:01:15;;;;;;;15.17;10.17;;;;;;;4.44;95.55;95571.03;4934039;29;20832;-81
2022/12/05 06:03:43;;;;;;;15.60;9.97;;;;;;;4.48;95.69;95572.38;4934545;29;20212;-81
2022/12/05 06:06:12;;;;;;;17.77;10.60;;;;;;;4.41;96.01;95573.09;4934485;29;20229;-80
2022/12/05 06:08:40;;;;;;;14.97;9.97;;;;;;;4.42;95.95;95588.25;4933687;29;20229;-82
2022/12/05 06:11:08;;;;;;;16.30;11.37;;;;;;;4.46;96.33;95594.66;4935508;29;20211;-81
2022/12/05 06:13:36;;;;;;;16.70;10.23;;;;;;;4.40;96.07;95600.31;4931217;29;20202;-80
2022/12/05 06:16:05;;;;;;;16.13;10.57;;;;;;;4.45;96.05;95595.59;4935688;29;20205;-80
2022/12/05 06:18:31;;;;;;;15.57;10.33;;;;;;;4.47;96.16;95601.34;4935652;29;20232;-80
2022/12/05 06:20:58;;;;;;;17.83;11.37;;;;;;;4.43;96.32;95609.41;4935912;29;20194;-81
2022/12/05 06:23:26;;;;;;;19.40;11.43;;;;;;;4.46;98.08;95616.78;4930394;29;20231;-80
2022/12/05 06:25:55;;;;;;;17.67;10.83;;;;;;;4.49;99.21;95604.56;4933607;29;20662;-79
2022/12/05 06:28:23;;;;;;;16.87;10.60;;;;;;;4.54;97.41;95608.47;4933006;29;20232;-80
2022/12/05 06:30:51;;;;;;;15.20;10.87;;;;;;;4.61;96.59;95612.06;4933086;29;20202;-80
2022/12/05 06:33:19;;;;;;;15.57;10.50;;;;;;;4.63;95.56;95617.81;4933162;29;20208;-80
2022/12/05 06:35:46;;;;;;;15.87;10.23;;;;;;;4.57;96.11;95616.66;4934076;29;20210;-81
2022/12/05 06:38:12;;;;;;;19.60;11.40;;;;;;;4.55;96.69;95612.63;4932565;29;20218;-80
2022/12/05 06:40:40;;;;;;;18.50;11.63;;;;;;;4.55;96.51;95607.53;4932327;29;20224;-80
2022/12/05 06:43:07;;;;;;;18.73;12.70;;;;;;;4.57;96.70;95614.09;4933243;29;20226;-82
2022/12/05 06:45:33;;;;;;;19.00;12.57;;;;;;;4.59;96.66;95617.31;4932632;29;20220;-81
2022/12/05 06:48:01;;;;;;;17.23;12.07;;;;;;;4.60;96.13;95608.72;4932700;29;20229;-80
2022/12/05 06:50:28;;;;;;;15.07;10.37;;;;;;;4.62;96.36;95618.78;4930642;29;20202;-81
2022/12/05 06:52:54;;;;;;;16.13;10.27;;;;;;;4.62;95.81;95632.31;4931790;29;20217;-81
2022/12/05 06:55:21;;;;;;;14.27;10.20;;;;;;;4.60;95.83;95639.31;4932163;29;20212;-80
2022/12/05 06:57:47;;;;;;;15.23;10.43;;;;;;;4.63;95.67;95641.56;4931645;29;20245;-81
2022/12/05 07:02:59;;;;;;;16.17;10.27;;;;;;;4.71;95.29;95643.44;4932595;29;20196;-80
2022/12/05 07:05:26;;;;;;;14.23;9.93;;;;;;;4.70;94.84;95650.28;4932006;29;20209;-80
2022/12/05 07:07:53;;;;;;;15.23;10.70;;;;;;;4.69;94.94;95646.13;4932443;29;20217;-81
2022/12/05 07:10:20;;;;;;;15.23;9.83;;;;;;;4.72;94.78;95642.50;4932471;29;20567;-80
2022/12/05 07:12:46;;;;;;;15.97;10.00;;;;;;;4.74;94.89;95648.25;4932024;29;20677;-82
2022/12/05 07:15:12;;;;;;;15.80;10.63;;;;;;;4.74;94.79;95650.81;4932679;29;20597;-80
2022/12/05 07:17:39;;;;;;;13.77;10.37;;;;;;;4.80;94.80;95651.06;4932506;29;20210;-81
2022/12/05 07:20:06;;;;;;;14.30;9.73;;;;;;;4.84;94.36;95649.03;4932213;29;20206;-81
2022/12/05 07:22:35;;;;;;;11.80;9.13;;;;;;;4.89;93.78;95651.16;4931466;29;20201;-80
2022/12/05 07:25:02;;;;;;;13.73;10.73;;;;;;;4.91;94.16;95649.28;4923411;29;20205;-81
2022/12/05 07:27:28;;;;;;;179.90;114.73;;;;;;;4.88;94.81;95654.66;4932142;29;20705;-81
2022/12/05 07:29:55;;;;;;;31.43;19.97;;;;;;;4.86;94.90;95655.59;4933173;29;20292;-81
2022/12/05 07:32:21;;;;;;;22.97;17.13;;;;;;;4.84;95.36;95662.59;4932750;29;20214;-79
2022/12/05 07:34:48;;;;;;;20.60;14.77;;;;;;;4.90;94.80;95655.31;4932861;29;20212;-81
2022/12/05 07:37:14;;;;;;;18.23;12.47;;;;;;;4.93;94.90;95655.03;4932555;29;20225;-82
2022/12/05 07:39:42;;;;;;;17.23;10.73;;;;;;;4.95;95.02;95656.50;4931696;29;20569;-81
2022/12/05 07:42:09;;;;;;;16.37;10.77;;;;;;;4.99;94.75;95655.31;4932214;29;20613;-80
2022/12/05 07:44:36;;;;;;;15.97;10.87;;;;;;;5.01;94.39;95666.13;4923873;29;20209;-80
2022/12/05 07:47:02;;;;;;;15.67;11.03;;;;;;;5.02;94.83;95664.41;4932032;29;20218;-82
2022/12/05 07:49:29;;;;;;;15.03;10.70;;;;;;;5.00;94.22;95667.13;4932169;29;20245;-81
2022/12/05 07:51:55;;;;;;;14.77;10.57;;;;;;;5.04;93.92;95677.81;4930717;29;20280;-80
2022/12/05 07:54:22;;;;;;;14.47;10.53;;;;;;;5.05;94.12;95675.13;4930504;29;20220;-80
2022/12/05 07:56:50;;;;;;;13.57;9.93;;;;;;;4.99;93.40;95677.47;4932346;29;20205;-81
2022/12/05 07:59:16;;;;;;;15.07;10.40;;;;;;;5.02;93.22;95680.50;4932836;29;20229;-81
2022/12/05 08:01:43;;;;;;;12.73;9.40;;;;;;;4.97;94.00;95682.69;4932301;29;20204;-81
2022/12/05 08:04:09;;;;;;;14.10;10.23;;;;;;;4.91;93.81;95688.34;4932049;29;20212;-81
2022/12/05 08:06:36;;;;;;;13.87;10.03;;;;;;;4.88;94.53;95691.16;4932264;29;20643;-82
2022/12/05 08:09:02;;;;;;;12.83;9.93;;;;;;;4.89;94.82;95687.69;4931285;29;20228;-81
2022/12/05 08:11:30;;;;;;;13.57;9.87;;;;;;;4.94;93.98;95684.72;4931691;29;20210;-80
2022/12/05 08:13:58;;;;;;;13.03;10.07;;;;;;;4.99;94.08;95677.47;4931543;29;20236;-80
2022/12/05 08:16:27;;;;;;;12.50;9.33;;;;;;;5.05;93.62;95681.97;4932151;29;20350;-81
2022/12/05 08:18:55;;;;;;;12.40;9.43;;;;;;;5.09;93.60;95679.00;4932012;29;20229;-80
2022/12/05 08:21:23;;;;;;;12.87;9.73;;;;;;;5.12;93.03;95683.84;4931463;29;20257;-80
2022/12/05 08:23:50;;;;;;;15.37;10.47;;;;;;;5.04;93.89;95681.19;4931765;29;20289;-80
2022/12/05 08:26:19;;;;;;;14.20;10.10;;;;;;;5.04;94.25;95695.69;4932099;29;20460;-82
2022/12/05 08:28:50;;;;;;;13.67;10.10;;;;;;;5.05;93.93;95702.38;4932223;29;20221;-80
2022/12/05 08:31:19;;;;;;;13.73;10.13;;;;;;;5.08;94.13;95702.13;4931797;29;20205;-81
2022/12/05 08:33:46;;;;;;;14.67;9.83;;;;;;;5.06;94.14;95711.66;4931641;29;20204;-80
2022/12/05 08:36:15;;;;;;;14.93;10.77;;;;;;;5.11;94.10;95717.97;4935144;29;20201;-80
2022/12/05 08:38:42;;;;;;;14.73;10.37;;;;;;;5.17;94.36;95724.25;4935499;29;20854;-80
2022/12/05 08:41:11;;;;;;;15.43;10.40;;;;;;;5.20;94.18;95719.66;4935636;29;20208;-82
2022/12/05 08:43:38;;;;;;;13.37;9.80;;;;;;;5.26;93.85;95718.31;4934295;29;20249;-81
2022/12/05 08:46:05;;;;;;;19.50;12.43;;;;;;;5.31;93.77;95716.13;4934741;29;20210;-82
2022/12/05 08:48:34;;;;;;;13.90;10.57;;;;;;;5.31;92.81;95723.81;4934742;29;20236;-81
2022/12/05 08:51:05;;;;;;;14.00;10.30;;;;;;;5.34;92.76;95725.28;4932387;29;20670;-82
2022/12/05 08:53:31;;;;;;;14.47;9.83;;;;;;;5.30;92.12;95729.03;4933591;29;20615;-83
2022/12/05 08:56:00;;;;;;;11.70;9.30;;;;;;;5.26;92.90;95725.97;4935876;29;20194;-81
2022/12/05 08:58:27;;;;;;;13.10;9.27;;;;;;;5.28;92.70;95725.81;4934245;29;20214;-82
2022/12/05 09:00:53;;;;;;;13.23;9.87;;;;;;;5.30;92.16;95731.59;4934732;29;20256;-82
2022/12/05 09:03:20;;;;;;;12.50;8.90;;;;;;;5.16;92.98;95733.66;4934654;29;20198;-81
2022/12/05 09:05:48;;;;;;;11.70;9.40;;;;;;;5.16;94.12;95723.47;4934623;29;20227;-81
2022/12/05 09:08:14;;;;;;;12.97;10.17;;;;;;;5.18;94.69;95729.22;4933793;29;20230;-80
2022/12/05 09:10:40;;;;;;;12.73;9.23;;;;;;;5.22;94.66;95730.53;4926924;29;20206;-81
2022/12/05 09:13:07;;;;;;;12.63;9.37;;;;;;;5.22;92.82;95727.97;4934904;29;20233;-81
2022/12/05 09:15:33;;;;;;;12.37;9.60;;;;;;;5.18;93.96;95744.53;4935098;29;20202;-81
2022/12/05 09:18:00;;;;;;;11.23;9.13;;;;;;;5.20;93.86;95734.16;4934925;29;20225;-82
2022/12/05 09:20:26;;;;;;;11.90;9.30;;;;;;;5.23;93.64;95739.00;4935032;29;20249;-80
2022/12/05 09:22:54;;;;;;;11.80;9.07;;;;;;;5.26;93.10;95743.03;4934113;29;20206;-82
2022/12/05 09:25:21;;;;;;;12.57;9.63;;;;;;;5.31;93.02;95744.22;4934578;29;20301;-81
2022/12/05 09:27:47;;;;;;;11.97;9.27;;;;;;;5.32;93.72;95748.38;4933353;29;20225;-80
2022/12/05 09:30:15;;;;;;;11.13;8.87;;;;;;;5.34;94.19;95750.81;4934349;29;20198;-81
2022/12/05 09:32:41;;;;;;;12.10;9.60;;;;;;;5.33;93.40;95751.75;4933675;29;20202;-81
2022/12/05 09:35:08;;;;;;;12.17;9.50;;;;;;;5.27;94.46;95748.00;4934856;29;20209;-82
2022/12/05 09:37:35;;;;;;;11.20;9.40;;;;;;;5.28;94.91;95753.91;4935055;29;20225;-82
2022/12/05 09:40:03;;;;;;;14.23;10.37;;;;;;;5.34;94.24;95766.13;4935534;29;20208;-82
2022/12/05 09:42:55;;;;;;;13.03;10.27;;;;;;;5.38;93.07;95762.34;4934152;29;20194;-80
2022/12/05 09:45:25;;;;;;;13.00;9.83;;;;;;;5.44;93.11;95765.13;4926143;29;20708;-82
2022/12/05 09:47:58;;;;;;;13.07;10.00;;;;;;;5.47;93.36;95766.59;4933651;29;20628;-81
2022/12/05 09:50:27;;;;;;;18.37;12.57;;;;;;;5.40;94.29;95766.34;4934333;29;20213;-80
2022/12/05 09:53:05;;;;;;;14.37;10.27;;;;;;;5.40;94.20;95768.09;4933922;29;20236;-80
2022/12/05 09:55:49;;;;;;;11.67;9.30;;;;;;;5.43;94.03;95770.38;4932871;29;20537;-81
2022/12/05 09:58:22;;;;;;;12.03;10.07;;;;;;;5.43;94.33;95765.25;4931830;29;20209;-81
2022/12/05 10:00:51;;;;;;;13.20;10.00;;;;;;;5.47;94.97;95766.59;4933896;29;20620;-79
2022/12/05 10:03:25;;;;;;;12.40;10.13;;;;;;;5.52;94.75;95772.91;4925052;29;20713;-81
2022/12/05 10:06:01;;;;;;;11.97;9.57;;;;;;;5.55;94.81;95770.06;4934080;29;20568;-82
2022/12/05 10:08:33;;;;;;;13.07;9.77;;;;;;;5.55;94.48;95769.25;4933153;29;20236;-81
2022/12/05 10:11:05;;;;;;;14.60;9.93;;;;;;;5.55;94.83;95769.25;4933986;29;20186;-82
2022/12/05 10:13:45;;;;;;;13.60;10.03;;;;;;;5.55;94.32;95767.50;4934003;29;20189;-80
2022/12/05 10:16:17;;;;;;;12.13;9.40;;;;;;;5.53;94.13;95766.03;4933249;29;20565;-80
2022/12/05 10:18:48;;;;;;;12.77;9.40;;;;;;;5.53;94.31;95764.28;4933444;29;20232;-81
2022/12/05 10:21:21;;;;;;;12.23;9.60;;;;;;;5.54;94.54;95760.78;4933762;29;20589;-80
2022/12/05 10:23:54;;;;;;;11.80;9.43;;;;;;;5.57;94.34;95758.91;4933479;29;20232;-81
2022/12/05 10:26:25;;;;;;;11.93;9.27;;;;;;;5.60;94.51;95759.41;4933047;29;20201;-80
2022/12/05 10:28:56;;;;;;;12.47;9.87;;;;;;;5.65;94.58;95759.78;4932433;29;20318;-81
2022/12/05 10:31:27;;;;;;;10.53;9.37;;;;;;;5.64;94.69;95760.75;4933440;29;20205;-81
2022/12/05 10:34:01;;;;;;;11.43;9.83;;;;;;;5.67;95.19;95752.00;4932812;29;20192;-81
2022/12/05 10:36:27;;;;;;;12.97;9.10;;;;;;;5.67;94.63;95754.53;4933599;29;20204;-83
2022/12/05 10:38:55;;;;;;;12.50;9.60;;;;;;;5.68;94.63;95756.16;4932235;29;20240;-81
2022/12/05 10:41:23;;;;;;;11.13;9.50;;;;;;;5.67;94.72;95755.34;4933384;29;20200;-81
2022/12/05 10:43:51;;;;;;;10.90;8.90;;;;;;;5.67;94.30;95754.53;4932747;29;20213;-80
2022/12/05 10:46:17;;;;;;;11.67;9.30;;;;;;;5.72;94.63;95755.75;4933576;29;20236;-82
2022/12/05 10:48:44;;;;;;;12.33;9.70;;;;;;;5.75;95.08;95757.22;4931661;29;20230;-81
2022/12/05 10:51:15;;;;;;;12.53;9.00;;;;;;;5.78;94.44;95750.03;4931674;29;20206;-82
2022/12/05 10:53:44;;;;;;;12.63;9.00;;;;;;;5.85;94.58;95747.72;4932164;29;20221;-82
2022/12/05 10:56:38;;;;;;;13.10;9.50;;;;;;;5.90;94.35;95737.91;4932264;29;20233;-81
2022/12/05 10:59:05;;;;;;;10.30;9.03;;;;;;;5.90;93.87;95735.38;4928640;29;20213;-81
2022/12/05 11:01:33;;;;;;;10.33;8.40;;;;;;;5.89;94.44;95733.75;4932748;29;20205;-80
2022/12/05 11:04:01;;;;;;;11.87;9.57;;;;;;;5.92;94.30;95738.59;4924917;29;22076;-80
2022/12/05 11:06:30;;;;;;;11.60;9.30;;;;;;;5.92;93.39;95738.59;4932334;29;20669;-80
2022/12/05 11:08:58;;;;;;;10.77;9.40;;;;;;;5.91;93.28;95741.28;4932081;29;20249;-81
2022/12/05 11:11:27;;;;;;;13.90;9.57;;;;;;;5.93;94.25;95741.94;4933170;29;20214;-81
2022/12/05 11:13:56;;;;;;;14.63;12.23;;;;;;;5.94;94.58;95739.25;4932001;29;20209;-82
2022/12/05 11:16:25;;;;;;;15.07;11.00;;;;;;;5.96;94.38;95739.09;4932779;29;20206;-81
2022/12/05 11:18:52;;;;;;;12.37;9.67;;;;;;;5.98;93.84;95732.88;4931432;29;20245;-82
2022/12/05 11:21:19;;;;;;;10.80;8.90;;;;;;;5.95;93.83;95733.19;4931986;29;20668;-81
2022/12/05 11:23:47;;;;;;;11.80;9.30;;;;;;;5.97;93.48;95733.00;4932343;29;20295;-81
2022/12/05 11:26:33;;;;;;;12.07;9.87;;;;;;;5.98;93.32;95727.75;4932951;29;20209;-79
2022/12/05 11:29:01;;;;;;;10.43;8.60;;;;;;;6.02;93.86;95723.16;4926970;29;20229;-81
2022/12/05 11:31:29;;;;;;;11.80;9.27;;;;;;;6.04;94.38;95729.75;4932495;29;20197;-82
2022/12/05 11:34:12;;;;;;;12.03;9.23;;;;;;;5.95;93.95;95725.53;4931237;29;20202;-82
2022/12/05 11:36:43;;;;;;;10.90;8.90;;;;;;;5.91;94.31;95725.94;4932611;29;20204;-82
2022/12/05 11:39:12;;;;;;;10.70;8.73;;;;;;;5.95;94.78;95728.06;4930904;29;21030;-82
2022/12/05 11:41:53;;;;;;;10.40;8.13;;;;;;;5.86;94.33;95732.25;4927513;29;20213;-81
2022/12/05 11:44:34;;;;;;;10.83;9.00;;;;;;;5.78;95.55;95723.69;4927710;29;20193;-81
2022/12/05 11:47:14;;;;;;;11.00;8.67;;;;;;;5.74;96.15;95719.84;4932842;29;20193;-82
2022/12/05 11:50:08;;;;;;;10.10;8.83;;;;;;;5.85;95.98;95719.63;4931661;29;20228;-82